»·PEaware :: N373EB KWHP-KHWD

N373EB :: KWHP-KHWD

FLIGHT INFORMATION

Flight Status: Arrived
Operator: Privately registered:
United States
More flights under this callsign
Pilot: Peder R. (40111)
Aircraft: BEECH AIRCRAFT DEBONAIR BONANZA
(BE33)
More flights by this aircraft type
Origin: KWHP Whiteman
United States
Destination: KHWD Hayward Executive
United States
More flights between these airports :: More routes between these airports
Route: WHP1 VNY V186 FIM V107 VINCO
File this flight plan on PilotEdge
Remarks:
Altitude:
(Current/Filed)
10,000ft
Speed:
(Current/Filed)
155kts
Departed: 14-Aug-23 03:55 PM
Arrived: 14-Aug-23 05:52 PM
Distance/Time
Traveled:
272nm/1:57
Distance/Time
To Go:
Arrived

Flight Plot

Page will automatically refresh every two minutes.

Flight plan parsing failed; only flown route is shown


Map Options




Map Legend


Flown Route
Filed Route
Departure Airport
Arrival Airport
Navaid (VOR, NDB)
Fix

Horizontal Profiles

Position Reports

Time Latitude Longitude Heading Altitude Ground
Speed
14-Aug-23 15:40 34.262836 -118.414252 139 1008ft 0kts
14-Aug-23 15:41 34.262836 -118.414252 139 1008ft 0kts
14-Aug-23 15:42 34.262836 -118.414252 139 1008ft 0kts
14-Aug-23 15:43 34.262836 -118.414252 139 1008ft 0kts
14-Aug-23 15:44 34.262836 -118.414252 139 1008ft 0kts
14-Aug-23 15:45 34.262836 -118.414252 139 1008ft 0kts
14-Aug-23 15:46 34.262836 -118.414252 139 1008ft 0kts
14-Aug-23 15:47 34.262836 -118.414252 139 1008ft 0kts
14-Aug-23 15:48 34.261601 -118.413503 123 1003ft 10kts
14-Aug-23 15:49 34.259841 -118.412533 232 993ft 9kts
14-Aug-23 15:50 34.257371 -118.410766 140 979ft 14kts
14-Aug-23 15:51 34.256867 -118.409986 171 976ft 0kts
14-Aug-23 15:52 34.256867 -118.409986 171 976ft 0kts
14-Aug-23 15:53 34.255825 -118.409113 139 971ft 6kts
14-Aug-23 15:53 34.255182 -118.408940 237 969ft 6kts
14-Aug-23 15:54 34.267327 -118.421946 314 1180ft 109kts
14-Aug-23 15:56 34.274872 -118.461031 263 2276ft 108kts
14-Aug-23 15:57 34.288799 -118.493278 313 3016ft 116kts
14-Aug-23 15:57 34.307198 -118.517149 314 3639ft 117kts
14-Aug-23 15:58 34.333428 -118.540773 334 4429ft 116kts
14-Aug-23 15:59 34.344589 -118.571231 214 5100ft 116kts
14-Aug-23 16:01 34.316221 -118.559613 142 6020ft 96kts
14-Aug-23 16:01 34.296050 -118.545260 144 6531ft 101kts
14-Aug-23 16:02 34.271567 -118.527219 142 7156ft 102kts
14-Aug-23 16:03 34.250807 -118.544318 269 7648ft 134kts
14-Aug-23 16:04 34.262669 -118.589332 287 8148ft 140kts
14-Aug-23 16:05 34.275435 -118.633239 289 8632ft 143kts
14-Aug-23 16:06 34.290674 -118.677158 287 9121ft 142kts
14-Aug-23 16:07 34.305257 -118.722728 286 9587ft 142kts
14-Aug-23 16:08 34.320952 -118.767584 286 9993ft 146kts
14-Aug-23 16:09 34.336460 -118.817996 285 10053ft 167kts
14-Aug-23 16:10 34.353530 -118.873317 291 10011ft 179kts
14-Aug-23 16:11 34.392688 -118.910151 328 9943ft 180kts
14-Aug-23 16:12 34.433449 -118.946073 329 9945ft 173kts
14-Aug-23 16:13 34.473839 -118.978340 327 9987ft 172kts
14-Aug-23 16:14 34.512694 -119.012713 328 10026ft 170kts
14-Aug-23 16:15 34.552387 -119.045025 329 10037ft 170kts
14-Aug-23 16:16 34.591750 -119.078647 324 10037ft 171kts
14-Aug-23 16:17 34.631147 -119.111593 330 10045ft 170kts
14-Aug-23 16:18 34.670632 -119.144088 328 10060ft 170kts
14-Aug-23 16:19 34.710513 -119.177251 329 10037ft 172kts
14-Aug-23 16:20 34.749003 -119.210648 330 10058ft 161kts
14-Aug-23 16:21 34.786657 -119.241267 334 9921ft 162kts
14-Aug-23 16:22 34.824248 -119.271595 331 9853ft 161kts
14-Aug-23 16:23 34.860374 -119.303762 329 9869ft 158kts
14-Aug-23 16:24 34.896233 -119.334714 330 9920ft 155kts
14-Aug-23 16:25 34.932565 -119.364261 331 9932ft 157kts
14-Aug-23 16:26 34.968977 -119.395252 329 9960ft 158kts
14-Aug-23 16:27 35.005755 -119.425901 328 9974ft 159kts
14-Aug-23 16:28 35.043028 -119.457285 328 9950ft 162kts
14-Aug-23 16:29 35.080193 -119.489491 327 9961ft 162kts
14-Aug-23 16:30 35.117749 -119.520908 330 9950ft 162kts
14-Aug-23 16:31 35.155060 -119.552869 323 9920ft 165kts
14-Aug-23 16:32 35.193414 -119.585474 323 9916ft 165kts
14-Aug-23 16:33 35.230771 -119.619140 322 9923ft 165kts
14-Aug-23 16:34 35.266936 -119.653099 326 9979ft 161kts
14-Aug-23 16:35 35.304805 -119.684195 328 9976ft 161kts
14-Aug-23 16:36 35.342575 -119.714342 326 9987ft 162kts
14-Aug-23 16:37 35.380016 -119.746347 325 10008ft 162kts
14-Aug-23 16:38 35.417982 -119.776881 332 10037ft 160kts
14-Aug-23 16:39 35.455051 -119.809297 322 10065ft 162kts
14-Aug-23 16:40 35.491961 -119.842187 327 10073ft 164kts
14-Aug-23 16:41 35.530052 -119.873384 326 10088ft 164kts
14-Aug-23 16:42 35.567395 -119.907238 322 10099ft 165kts
14-Aug-23 16:43 35.605649 -119.939932 332 10089ft 165kts
14-Aug-23 16:44 35.645436 -119.971037 326 9982ft 172kts
14-Aug-23 16:45 35.684314 -120.004262 326 10026ft 168kts
14-Aug-23 16:46 35.724364 -120.035172 331 9999ft 168kts
14-Aug-23 16:47 35.765326 -120.064141 329 9963ft 168kts
14-Aug-23 16:48 35.804856 -120.095299 330 9945ft 167kts
14-Aug-23 16:49 35.845501 -120.124634 333 9932ft 166kts
14-Aug-23 16:50 35.885613 -120.154035 330 9941ft 165kts
14-Aug-23 16:51 35.924900 -120.184047 328 9970ft 165kts
14-Aug-23 16:52 35.964662 -120.212404 332 9997ft 163kts
14-Aug-23 16:53 36.004214 -120.241460 330 9978ft 164kts
14-Aug-23 16:54 36.043787 -120.271241 329 9959ft 164kts
14-Aug-23 16:55 36.083367 -120.300591 331 9955ft 164kts
14-Aug-23 16:56 36.123001 -120.329979 326 9956ft 165kts
14-Aug-23 16:57 36.162495 -120.359463 333 9967ft 164kts
14-Aug-23 16:58 36.201738 -120.389755 329 9983ft 164kts
14-Aug-23 16:59 36.241010 -120.420151 329 9997ft 164kts
14-Aug-23 17:00 36.280900 -120.449896 331 9980ft 165kts
14-Aug-23 17:01 36.321040 -120.479068 335 9933ft 165kts
14-Aug-23 17:02 36.360810 -120.508971 332 9896ft 165kts
14-Aug-23 17:03 36.399574 -120.540530 330 9874ft 165kts
14-Aug-23 17:04 36.438397 -120.569035 329 10010ft 159kts
14-Aug-23 17:05 36.473910 -120.596557 332 9996ft 162kts
14-Aug-23 17:06 36.514600 -120.625130 333 9972ft 164kts
14-Aug-23 17:07 36.554011 -120.654870 329 9949ft 164kts
14-Aug-23 17:08 36.593112 -120.686138 327 9936ft 164kts
14-Aug-23 17:09 36.631823 -120.716256 332 9951ft 161kts
14-Aug-23 17:10 36.670666 -120.744939 330 9949ft 162kts
14-Aug-23 17:11 36.709227 -120.775801 331 9920ft 164kts
14-Aug-23 17:12 36.741579 -120.816734 317 9940ft 163kts
14-Aug-23 17:13 36.773505 -120.859141 311 9944ft 165kts
14-Aug-23 17:14 36.804145 -120.902725 311 9976ft 165kts
14-Aug-23 17:15 36.834434 -120.946747 309 10045ft 164kts
14-Aug-23 17:16 36.865601 -120.990356 312 10036ft 167kts
14-Aug-23 17:17 36.896888 -121.033917 311 10028ft 168kts
14-Aug-23 17:18 36.927895 -121.078323 313 10044ft 166kts
14-Aug-23 17:19 36.958543 -121.122889 311 10028ft 167kts
14-Aug-23 17:20 36.989611 -121.166745 313 9993ft 167kts
14-Aug-23 17:21 37.020320 -121.210991 315 9991ft 164kts
14-Aug-23 17:22 37.051829 -121.253879 314 9998ft 164kts
14-Aug-23 17:23 37.082953 -121.296993 314 9988ft 167kts
14-Aug-23 17:24 37.113456 -121.341467 312 10018ft 166kts
14-Aug-23 17:25 37.144334 -121.385779 313 9605ft 173kts
14-Aug-23 17:26 37.176103 -121.430219 313 8863ft 160kts
14-Aug-23 17:27 37.204237 -121.472659 316 8009ft 157kts
14-Aug-23 17:28 37.232851 -121.513999 314 7123ft 153kts
14-Aug-23 17:29 37.261613 -121.554910 314 6253ft 152kts
14-Aug-23 17:30 37.288021 -121.592490 317 5959ft 131kts
14-Aug-23 17:31 37.308991 -121.625492 313 5989ft 117kts
14-Aug-23 17:32 37.331154 -121.654311 320 5933ft 113kts
14-Aug-23 17:33 37.352761 -121.682494 317 5950ft 107kts
14-Aug-23 17:34 37.372711 -121.710263 308 5948ft 107kts
14-Aug-23 17:35 37.398592 -121.727228 336 5689ft 105kts
14-Aug-23 17:36 37.425347 -121.740352 338 5774ft 102kts
14-Aug-23 17:37 37.452213 -121.753339 337 5724ft 102kts
14-Aug-23 17:38 37.478996 -121.767218 334 5700ft 102kts
14-Aug-23 17:39 37.504984 -121.783065 312 5630ft 106kts
14-Aug-23 17:40 37.518612 -121.816791 301 5318ft 106kts
14-Aug-23 17:41 37.534134 -121.851366 306 4706ft 128kts
14-Aug-23 17:42 37.550939 -121.887581 303 4349ft 118kts
14-Aug-23 17:43 37.568452 -121.924727 302 3805ft 100kts
14-Aug-23 17:44 37.582803 -121.956022 299 2924ft 103kts
14-Aug-23 17:45 37.596609 -121.985798 299 2360ft 99kts
14-Aug-23 17:46 37.609887 -122.015365 297 1932ft 97kts
14-Aug-23 17:47 37.623264 -122.044717 297 1290ft 97kts
14-Aug-23 17:48 37.635492 -122.071743 297 946ft 72kts
14-Aug-23 17:49 37.645744 -122.093861 297 529ft 73kts
14-Aug-23 17:50 37.654686 -122.113674 297 74ft 60kts
14-Aug-23 17:51 37.659168 -122.122687 354 30ft 7kts
14-Aug-23 17:52 37.660678 -122.122100 30 30ft 0kts
14-Aug-23 17:53 37.661611 -122.121415 335 33ft 4kts

Navigation Log

Ident Type
Flight plan parsing failed, navigation log unavailable